createdAt,value
2023-05-04T00:01:37.887Z,4.68
2023-05-04T00:05:47.912Z,4.28
2023-05-04T00:07:52.789Z,4.40
2023-05-04T00:10:00.394Z,4.18
2023-05-04T00:12:05.325Z,4.45
2023-05-04T00:14:10.240Z,4.10
2023-05-04T00:16:15.217Z,3.95
2023-05-04T00:18:20.218Z,3.88
2023-05-04T00:20:25.298Z,4.78
2023-05-04T00:22:30.182Z,4.05
2023-05-04T00:24:35.161Z,4.38
2023-05-04T00:26:42.703Z,4.20
2023-05-04T00:28:47.798Z,4.53
2023-05-04T00:30:52.663Z,4.03
2023-05-04T00:32:57.595Z,4.30
2023-05-04T00:35:03.251Z,4.22
2023-05-04T00:37:08.179Z,4.15
2023-05-04T00:39:13.112Z,4.95
2023-05-04T00:41:18.120Z,4.90
2023-05-04T00:43:25.557Z,5.50
2023-05-04T00:45:30.871Z,5.00
2023-05-04T00:47:35.978Z,4.57
2023-05-04T00:51:47.687Z,4.68
2023-05-04T00:53:54.729Z,4.50
2023-05-04T00:56:01.030Z,4.40
2023-05-04T00:58:06.110Z,4.25
2023-05-04T01:00:15.736Z,5.03
2023-05-04T01:02:20.805Z,5.40
2023-05-04T01:04:25.756Z,4.95
2023-05-04T01:06:38.949Z,4.80
2023-05-04T01:08:49.304Z,4.60
2023-05-04T01:10:59.749Z,4.82
2023-05-04T01:13:09.882Z,4.65
2023-05-04T01:15:17.829Z,5.20
2023-05-04T01:17:23.243Z,5.53
2023-05-04T01:19:29.401Z,4.55
2023-05-04T01:21:37.165Z,4.80
2023-05-04T01:23:42.151Z,5.07
2023-05-04T01:25:52.714Z,5.10
2023-05-04T01:28:02.567Z,5.53
2023-05-04T01:30:12.689Z,5.22
2023-05-04T01:32:18.533Z,5.00
2023-05-04T01:34:25.296Z,5.10
2023-05-04T01:36:30.364Z,5.50
2023-05-04T01:38:40.695Z,5.25
2023-05-04T01:40:45.680Z,5.15
2023-05-04T01:42:50.886Z,5.45
2023-05-04T01:44:56.551Z,5.28
2023-05-04T01:47:01.426Z,5.55
2023-05-04T01:49:07.310Z,5.10
2023-05-04T01:51:12.152Z,5.13
2023-05-04T01:53:17.146Z,5.60
2023-05-04T01:55:24.628Z,5.38
2023-05-04T01:57:29.625Z,5.85
2023-05-04T01:59:34.755Z,5.07
2023-05-04T02:01:39.664Z,5.53
2023-05-04T02:03:45.017Z,5.00
2023-05-04T02:07:54.690Z,5.25
2023-05-04T02:09:59.538Z,5.85
2023-05-04T02:12:07.184Z,5.57
2023-05-04T02:14:12.190Z,6.07
2023-05-04T02:16:17.187Z,5.40
2023-05-04T02:18:22.532Z,6.35
2023-05-04T02:20:27.427Z,5.93
2023-05-04T02:22:32.683Z,6.30
2023-05-04T02:26:42.337Z,6.13
2023-05-04T02:28:50.192Z,5.75
2023-05-04T02:30:55.154Z,6.13
2023-05-04T02:33:00.031Z,5.95
2023-05-04T02:35:05.117Z,5.70
2023-05-04T02:37:09.962Z,6.00
2023-05-04T02:39:14.968Z,5.45
2023-05-04T02:41:19.866Z,5.65
2023-05-04T02:43:24.872Z,5.35
2023-05-04T02:45:33.399Z,6.00
2023-05-04T02:47:38.435Z,5.88
2023-05-04T02:49:43.768Z,5.53
2023-05-04T02:53:53.653Z,5.38
2023-05-04T02:55:58.611Z,5.57
2023-05-04T02:58:03.571Z,5.32
2023-05-04T03:00:10.139Z,6.35
2023-05-04T03:02:17.698Z,6.35
2023-05-04T03:04:22.731Z,6.28
2023-05-04T03:06:27.729Z,5.90
2023-05-04T03:08:32.620Z,5.55
2023-05-04T03:10:37.684Z,5.07
2023-05-04T03:12:42.672Z,6.82
2023-05-04T03:14:47.593Z,5.40
2023-05-04T03:16:52.714Z,5.60
2023-05-04T03:19:01.092Z,6.00
2023-05-04T03:21:06.407Z,6.15
2023-05-04T03:23:11.938Z,6.22
2023-05-04T03:25:16.979Z,5.60
2023-05-04T03:27:22.193Z,5.97
2023-05-04T03:29:27.298Z,5.65
2023-05-04T03:31:33.731Z,6.10
2023-05-04T03:33:38.691Z,6.15
2023-05-04T03:35:46.297Z,6.15
2023-05-04T03:37:51.250Z,6.85
2023-05-04T03:39:56.320Z,6.45
2023-05-04T03:44:06.125Z,6.25
2023-05-04T03:46:12.269Z,6.40
2023-05-04T03:48:17.246Z,6.85
2023-05-04T03:50:22.408Z,5.75
2023-05-04T03:52:29.875Z,6.55
2023-05-04T03:54:35.108Z,5.63
2023-05-04T03:56:39.997Z,6.22
2023-05-04T04:00:52.263Z,6.80
2023-05-04T04:02:57.346Z,6.40
2023-05-04T04:05:02.368Z,7.28
2023-05-04T04:09:14.812Z,6.72
2023-05-04T04:11:20.033Z,7.43
2023-05-04T04:15:29.720Z,6.03
2023-05-04T04:17:34.684Z,6.40
2023-05-04T04:19:39.705Z,6.68
2023-05-04T04:21:44.670Z,7.72
2023-05-04T04:23:49.579Z,6.88
2023-05-04T04:25:57.179Z,7.20
2023-05-04T04:28:02.146Z,7.47
2023-05-04T04:30:07.656Z,7.50
2023-05-04T04:32:12.802Z,6.70
2023-05-04T04:34:18.138Z,7.15
2023-05-04T04:36:23.078Z,7.05
2023-05-04T04:38:28.118Z,6.05
2023-05-04T04:40:33.031Z,6.95
2023-05-04T04:42:40.593Z,6.90
2023-05-04T04:44:45.847Z,6.45
2023-05-04T04:46:51.227Z,6.85
2023-05-04T04:48:56.360Z,6.78
2023-05-04T04:51:01.252Z,6.15
2023-05-04T04:53:06.126Z,6.70
2023-05-04T04:55:12.099Z,7.25
2023-05-04T04:57:17.020Z,6.50
2023-05-04T04:59:24.987Z,6.63
2023-05-04T05:01:30.146Z,6.55
2023-05-04T05:05:39.996Z,6.22
2023-05-04T05:07:44.924Z,6.25
2023-05-04T05:09:49.860Z,6.47
2023-05-04T05:11:54.850Z,6.72
2023-05-04T05:14:00.070Z,6.70
2023-05-04T05:18:12.788Z,6.90
2023-05-04T05:20:17.749Z,6.78
2023-05-04T05:22:23.051Z,6.78
2023-05-04T05:24:28.075Z,6.47
2023-05-04T05:26:33.714Z,5.78
2023-05-04T05:28:38.719Z,5.72
2023-05-04T05:30:44.242Z,6.35
2023-05-04T05:32:52.190Z,6.22
2023-05-04T05:34:57.108Z,6.57
2023-05-04T05:37:02.043Z,6.28
2023-05-04T05:39:07.733Z,6.05
2023-05-04T05:41:12.794Z,5.88
2023-05-04T05:43:17.773Z,5.93
2023-05-04T05:45:22.884Z,7.00
2023-05-04T05:49:35.500Z,6.82
2023-05-04T05:51:40.445Z,6.38
2023-05-04T05:53:45.793Z,6.00
2023-05-04T05:55:50.812Z,6.10
2023-05-04T05:57:55.754Z,7.05
2023-05-04T06:00:00.927Z,18.42
2023-05-04T06:04:11.845Z,7.25
2023-05-04T06:06:19.647Z,6.15
2023-05-04T06:08:24.636Z,6.43
2023-05-04T06:10:29.973Z,5.93
2023-05-04T06:12:35.260Z,6.45
2023-05-04T06:14:40.145Z,6.28
2023-05-04T06:16:45.097Z,6.60
2023-05-04T06:18:50.079Z,5.68
2023-05-04T06:21:01.159Z,5.28
2023-05-04T06:23:11.641Z,5.60
2023-05-04T06:25:16.853Z,6.20
2023-05-04T06:27:23.598Z,5.93
2023-05-04T06:29:29.154Z,6.18
2023-05-04T06:31:34.177Z,5.68
2023-05-04T06:33:39.232Z,5.45
2023-05-04T06:35:45.406Z,5.18
2023-05-04T06:39:58.911Z,5.82
2023-05-04T06:42:03.882Z,4.90
2023-05-04T06:44:14.321Z,4.88
2023-05-04T06:46:19.370Z,5.03
2023-05-04T06:48:24.261Z,4.80
2023-05-04T06:50:29.690Z,5.00
2023-05-04T06:54:40.401Z,5.28
2023-05-04T06:56:48.017Z,5.60
2023-05-04T06:58:53.148Z,4.57
2023-05-04T07:00:58.067Z,4.65
2023-05-04T07:03:03.113Z,4.80
2023-05-04T07:05:08.676Z,4.32
2023-05-04T07:07:13.593Z,4.68
2023-05-04T07:09:18.656Z,4.75
2023-05-04T07:11:23.710Z,4.57
2023-05-04T07:13:31.210Z,4.55
2023-05-04T07:15:37.041Z,5.03
2023-05-04T07:17:42.365Z,4.63
2023-05-04T07:19:50.080Z,4.20
2023-05-04T07:21:55.125Z,4.30
2023-05-04T07:24:00.058Z,4.95
2023-05-04T07:26:04.957Z,4.30
2023-05-04T07:28:09.868Z,3.90
2023-05-04T07:30:18.049Z,5.03
2023-05-04T07:32:23.085Z,4.18
2023-05-04T07:36:49.677Z,3.67
2023-05-04T07:38:54.577Z,4.20
2023-05-04T07:40:59.864Z,4.28
2023-05-04T07:45:11.244Z,3.38
2023-05-04T07:47:18.694Z,3.63
2023-05-04T07:49:23.662Z,3.33
2023-05-04T07:51:28.617Z,3.90
2023-05-04T07:53:33.528Z,4.40
2023-05-04T07:55:38.425Z,3.20
2023-05-04T07:57:43.358Z,4.03
2023-05-04T07:59:48.232Z,3.80
2023-05-04T08:01:53.468Z,3.78
2023-05-04T08:04:01.240Z,3.67
2023-05-04T08:06:06.380Z,4.18
2023-05-04T08:10:16.242Z,4.00
2023-05-04T08:12:21.117Z,3.78
2023-05-04T08:14:26.082Z,3.67
2023-05-04T08:16:31.334Z,4.68
2023-05-04T08:18:37.314Z,3.90
2023-05-04T08:20:44.777Z,3.50
2023-05-04T08:22:50.153Z,4.32
2023-05-04T08:24:55.147Z,3.78
2023-05-04T08:27:07.126Z,3.67
2023-05-04T08:29:13.577Z,3.50
2023-05-04T08:33:23.889Z,4.28
2023-05-04T08:35:29.069Z,4.60
2023-05-04T08:39:42.155Z,4.20
2023-05-04T08:41:47.529Z,4.22
2023-05-04T08:43:52.883Z,3.97
2023-05-04T08:45:58.380Z,4.20
2023-05-04T08:48:04.243Z,4.53
2023-05-04T08:50:11.116Z,4.50
2023-05-04T08:52:16.987Z,4.80
2023-05-04T08:54:25.783Z,4.80
2023-05-04T08:56:30.909Z,4.53
2023-05-04T09:00:45.877Z,3.80
2023-05-04T09:02:52.707Z,4.13
2023-05-04T09:04:57.700Z,4.57
2023-05-04T09:07:02.787Z,4.50
2023-05-04T09:11:15.160Z,4.18
2023-05-04T09:13:20.172Z,4.43
2023-05-04T09:15:25.751Z,4.47
2023-05-04T09:17:30.923Z,4.47
2023-05-04T09:21:44.156Z,3.47
2023-05-04T09:23:50.164Z,3.75
2023-05-04T09:25:56.625Z,3.28
2023-05-04T09:28:04.222Z,3.60
2023-05-04T09:30:11.549Z,3.95
2023-05-04T09:32:17.159Z,3.67
2023-05-04T09:34:22.508Z,3.80
2023-05-04T09:36:27.439Z,3.50
2023-05-04T09:38:34.960Z,4.22
2023-05-04T09:40:41.661Z,3.45
2023-05-04T09:42:46.676Z,3.47
2023-05-04T09:45:04.975Z,3.55
2023-05-04T09:47:10.894Z,3.40
2023-05-04T09:49:15.837Z,3.92
2023-05-04T09:53:29.196Z,4.15
2023-05-04T09:55:34.360Z,3.60
2023-05-04T09:59:45.801Z,3.80
2023-05-04T10:01:53.544Z,3.08
2023-05-04T10:03:59.106Z,3.42
2023-05-04T10:06:09.297Z,3.08
2023-05-04T10:08:15.559Z,3.45
2023-05-04T10:10:20.521Z,3.08
2023-05-04T10:14:33.586Z,4.32
2023-05-04T10:16:47.625Z,3.22
2023-05-04T10:19:09.075Z,3.40
2023-05-04T10:21:31.054Z,3.22
2023-05-04T10:24:10.363Z,3.40
2023-05-04T10:26:36.271Z,3.67
2023-05-04T10:28:59.919Z,3.10
2023-05-04T10:31:06.505Z,3.10
2023-05-04T10:33:11.676Z,2.47
2023-05-04T10:35:20.335Z,2.90
2023-05-04T10:37:25.285Z,2.97
2023-05-04T10:41:35.724Z,2.75
2023-05-04T10:43:40.758Z,2.60
2023-05-04T10:45:45.913Z,2.47
2023-05-04T10:48:00.471Z,3.50
2023-05-04T10:50:07.165Z,3.30
2023-05-04T10:52:16.411Z,2.45
2023-05-04T10:54:21.944Z,2.70
2023-05-04T10:56:28.372Z,2.70
2023-05-04T10:58:33.286Z,3.67
2023-05-04T11:00:42.574Z,3.35
2023-05-04T11:02:48.427Z,3.13
2023-05-04T11:05:04.518Z,3.10
2023-05-04T11:07:10.080Z,2.90
2023-05-04T11:09:17.845Z,2.40
2023-05-04T11:11:22.852Z,2.72
2023-05-04T11:15:33.123Z,2.70
2023-05-04T11:17:47.546Z,2.67
2023-05-04T11:19:53.490Z,2.63
2023-05-04T11:21:58.632Z,2.80
2023-05-04T11:24:03.773Z,2.60
2023-05-04T11:26:12.603Z,2.50
2023-05-04T11:28:17.604Z,2.63
2023-05-04T11:32:36.992Z,2.65
2023-05-04T11:34:42.106Z,2.03
2023-05-04T11:36:48.420Z,2.05
2023-05-04T11:38:54.608Z,2.58
2023-05-04T11:40:59.646Z,2.25
2023-05-04T11:45:15.234Z,2.50
2023-05-04T11:47:20.803Z,2.42
2023-05-04T11:49:27.010Z,2.00
2023-05-04T11:51:31.988Z,1.95
2023-05-04T11:53:40.407Z,2.15
2023-05-04T11:55:45.498Z,2.55
2023-05-04T12:00:07.857Z,2.40
2023-05-04T12:02:18.220Z,2.00
2023-05-04T12:04:23.202Z,2.20
2023-05-04T12:08:42.529Z,2.47
2023-05-04T12:10:47.569Z,2.10
2023-05-04T12:14:59.392Z,1.95
2023-05-04T12:17:06.923Z,2.33
2023-05-04T12:19:13.955Z,2.10
2023-05-04T12:21:21.689Z,2.28
2023-05-04T12:23:26.556Z,1.95
2023-05-04T12:25:31.531Z,2.00
2023-05-04T12:27:36.442Z,1.83
2023-05-04T12:29:41.746Z,2.15
2023-05-04T12:31:47.086Z,1.92
2023-05-04T12:33:55.346Z,1.90
2023-05-04T12:36:00.276Z,1.95
2023-05-04T12:40:27.308Z,2.53
2023-05-04T12:42:33.457Z,2.05
2023-05-04T12:44:38.375Z,2.00
2023-05-04T12:46:43.334Z,2.08
2023-05-04T12:48:48.285Z,1.70
2023-05-04T12:50:56.328Z,2.30
2023-05-04T12:53:04.277Z,1.75
2023-05-04T12:55:10.673Z,1.70
2023-05-04T12:57:15.836Z,2.05
2023-05-04T12:59:21.967Z,2.17
2023-05-04T13:01:27.675Z,2.25
2023-05-04T13:03:32.846Z,1.90
2023-05-04T13:07:45.315Z,2.15
2023-05-04T13:09:50.344Z,1.90
2023-05-04T13:14:00.069Z,2.25
2023-05-04T13:18:10.999Z,2.25
2023-05-04T13:22:21.559Z,2.15
2023-05-04T13:24:29.850Z,1.75
2023-05-04T13:26:34.837Z,1.80
2023-05-04T13:30:48.717Z,1.50
2023-05-04T13:32:56.494Z,1.60
2023-05-04T13:35:01.544Z,1.80
2023-05-04T13:37:06.848Z,1.65
2023-05-04T13:39:12.055Z,2.13
2023-05-04T13:41:19.671Z,1.90
2023-05-04T13:43:24.828Z,2.03
2023-05-04T13:45:31.403Z,1.90
2023-05-04T13:47:37.740Z,2.47
2023-05-04T13:49:42.906Z,2.25
2023-05-04T13:51:47.869Z,2.13
2023-05-04T13:53:52.776Z,1.92
2023-05-04T13:55:57.654Z,1.98
2023-05-04T14:00:11.550Z,1.98
2023-05-04T14:02:16.706Z,2.35
2023-05-04T14:04:21.804Z,1.95
2023-05-04T14:06:26.682Z,2.00
2023-05-04T14:08:32.048Z,1.95
2023-05-04T14:10:37.633Z,1.83
2023-05-04T14:12:42.610Z,1.92
2023-05-04T14:16:55.942Z,1.70
2023-05-04T14:21:05.858Z,2.10
2023-05-04T14:23:10.856Z,1.77
2023-05-04T14:27:21.292Z,1.50
2023-05-04T14:29:26.824Z,1.55
2023-05-04T14:31:34.550Z,1.70
2023-05-04T14:33:39.752Z,2.08
2023-05-04T14:35:47.950Z,2.45
2023-05-04T14:37:53.481Z,2.03
2023-05-04T14:39:59.685Z,2.22
2023-05-04T14:42:04.561Z,1.90
2023-05-04T14:46:15.002Z,1.30
2023-05-04T14:48:24.473Z,1.90
2023-05-04T14:50:29.517Z,2.20
2023-05-04T14:54:39.241Z,1.50
2023-05-04T14:56:44.450Z,1.70
2023-05-04T14:58:49.470Z,1.30
2023-05-04T15:00:54.604Z,1.98
2023-05-04T15:02:59.686Z,1.75
2023-05-04T15:05:10.230Z,1.77
2023-05-04T15:07:16.230Z,1.85
2023-05-04T15:09:21.287Z,1.92
2023-05-04T15:13:32.180Z,1.95
2023-05-04T15:15:41.518Z,2.05
2023-05-04T15:17:46.456Z,2.10
2023-05-04T15:21:58.720Z,2.10
2023-05-04T15:24:03.779Z,2.08
2023-05-04T15:26:08.665Z,2.15
2023-05-04T15:30:19.071Z,2.10
2023-05-04T15:32:23.985Z,1.77
2023-05-04T15:34:29.008Z,1.90
2023-05-04T15:38:41.248Z,1.95
2023-05-04T15:40:46.193Z,2.10
2023-05-04T15:42:51.356Z,1.80
2023-05-04T15:44:56.403Z,1.95
2023-05-04T15:47:01.575Z,1.90
2023-05-04T15:49:06.567Z,1.60
2023-05-04T15:51:13.968Z,2.00
2023-05-04T15:53:19.025Z,1.50
2023-05-04T15:55:27.047Z,1.70
2023-05-04T15:57:32.017Z,1.80
2023-05-04T15:59:36.975Z,1.50
2023-05-04T16:03:47.365Z,1.40
2023-05-04T16:05:52.549Z,1.33
2023-05-04T16:07:57.937Z,1.75
2023-05-04T16:10:02.805Z,1.80
2023-05-04T16:12:10.907Z,1.55
2023-05-04T16:14:16.377Z,1.80
2023-05-04T16:16:21.612Z,2.28
2023-05-04T16:18:26.547Z,1.70
2023-05-04T16:22:37.067Z,1.40
2023-05-04T16:24:42.038Z,1.88
2023-05-04T16:28:57.694Z,1.90
2023-05-04T16:31:02.590Z,1.58
2023-05-04T16:35:12.839Z,1.60
2023-05-04T16:37:19.024Z,1.63
2023-05-04T16:39:23.910Z,1.67
2023-05-04T16:41:30.846Z,1.20
2023-05-04T16:43:35.769Z,1.80
2023-05-04T16:47:48.587Z,1.92
2023-05-04T16:49:53.552Z,1.67
2023-05-04T16:51:58.459Z,1.70
2023-05-04T16:54:03.370Z,1.73
2023-05-04T16:56:09.096Z,1.30
2023-05-04T16:58:14.068Z,1.20
2023-05-04T17:02:26.886Z,1.13
2023-05-04T17:04:31.852Z,1.70
2023-05-04T17:08:41.582Z,1.50
2023-05-04T17:12:52.223Z,1.30
2023-05-04T17:14:57.176Z,1.40
2023-05-04T17:17:02.037Z,1.35
2023-05-04T17:19:11.077Z,1.70
2023-05-04T17:21:16.263Z,1.70
2023-05-04T17:25:26.030Z,1.50
2023-05-04T17:29:35.699Z,1.73
2023-05-04T17:33:46.433Z,1.95
2023-05-04T17:35:54.327Z,1.90
2023-05-04T17:37:59.352Z,2.15
2023-05-04T17:40:04.397Z,2.33
2023-05-04T17:42:10.909Z,2.72
2023-05-04T17:44:16.032Z,2.13
2023-05-04T17:48:27.028Z,2.95
2023-05-04T17:50:31.981Z,3.20
2023-05-04T17:52:39.508Z,3.10
2023-05-04T17:54:44.401Z,2.72
2023-05-04T17:56:49.344Z,2.00
2023-05-04T17:58:54.296Z,2.35
2023-05-04T18:00:59.331Z,2.80
2023-05-04T18:05:10.774Z,2.17
2023-05-04T18:07:15.639Z,2.15
2023-05-04T18:09:23.286Z,3.42
2023-05-04T18:11:28.208Z,5.95
2023-05-04T18:13:33.150Z,6.22
2023-05-04T18:15:38.124Z,7.97
2023-05-04T18:17:43.088Z,5.72
2023-05-04T18:19:47.976Z,4.30
2023-05-04T18:21:52.940Z,4.13
2023-05-04T18:23:57.837Z,3.83
2023-05-04T18:26:05.414Z,5.55
2023-05-04T18:28:10.389Z,5.13
2023-05-04T18:30:15.534Z,4.05
2023-05-04T18:34:25.197Z,4.25
2023-05-04T18:36:30.191Z,6.72
2023-05-04T18:38:37.306Z,6.55
2023-05-04T18:40:42.202Z,7.70
2023-05-04T18:42:49.822Z,7.75
2023-05-04T18:44:55.032Z,7.45
2023-05-04T18:46:59.982Z,9.20
2023-05-04T18:49:04.868Z,7.00
2023-05-04T18:51:09.913Z,7.60
2023-05-04T18:53:14.903Z,6.47
2023-05-04T18:55:22.107Z,8.50
2023-05-04T18:57:29.431Z,7.88
2023-05-04T18:59:37.887Z,7.40
2023-05-04T19:01:44.373Z,4.65
2023-05-04T19:03:49.382Z,3.25
2023-05-04T19:05:54.452Z,2.13
2023-05-04T19:07:59.340Z,1.50
2023-05-04T19:10:04.323Z,1.33
2023-05-04T19:12:09.876Z,2.05
2023-05-04T19:14:15.090Z,1.85
2023-05-04T19:16:22.941Z,1.70
2023-05-04T19:18:27.849Z,1.60
2023-05-04T19:20:33.138Z,1.52
2023-05-04T19:22:38.187Z,1.55
2023-05-04T19:24:43.686Z,1.77
2023-05-04T19:28:53.567Z,2.72
2023-05-04T19:30:58.696Z,3.22
2023-05-04T19:35:14.592Z,2.20
2023-05-04T19:37:19.635Z,2.70
2023-05-04T19:41:29.606Z,2.35
2023-05-04T19:43:34.584Z,2.67
2023-05-04T19:45:39.852Z,2.50
2023-05-04T19:47:45.799Z,2.10
2023-05-04T19:49:54.465Z,2.20
2023-05-04T19:51:59.390Z,2.50
2023-05-04T19:54:04.370Z,2.33
2023-05-04T19:56:09.626Z,2.25
2023-05-04T20:00:20.098Z,2.10
2023-05-04T20:02:25.359Z,2.00
2023-05-04T20:06:37.692Z,1.90
2023-05-04T20:08:44.257Z,2.33
2023-05-04T20:10:49.222Z,1.90
2023-05-04T20:12:54.204Z,2.10
2023-05-04T20:14:59.610Z,2.33
2023-05-04T20:17:04.600Z,2.17
2023-05-04T20:21:14.692Z,2.60
2023-05-04T20:23:22.237Z,2.75
2023-05-04T20:25:27.750Z,2.40
2023-05-04T20:27:32.969Z,2.30
2023-05-04T20:29:38.055Z,3.08
2023-05-04T20:31:44.151Z,2.17
2023-05-04T20:33:49.235Z,2.60
2023-05-04T20:35:54.297Z,2.80
2023-05-04T20:37:59.448Z,2.00
2023-05-04T20:40:08.531Z,2.20
2023-05-04T20:42:13.762Z,2.20
2023-05-04T20:46:23.639Z,1.90
2023-05-04T20:50:33.488Z,2.42
2023-05-04T20:52:38.718Z,2.47
2023-05-04T20:54:44.440Z,2.40
2023-05-04T20:56:52.006Z,3.20
2023-05-04T20:58:56.909Z,2.50
2023-05-04T21:01:05.693Z,2.53
2023-05-04T21:03:10.784Z,3.35
2023-05-04T21:07:20.705Z,2.80
2023-05-04T21:11:31.621Z,2.92
2023-05-04T21:13:39.076Z,3.03
2023-05-04T21:15:44.484Z,3.30
2023-05-04T21:17:50.085Z,2.95
2023-05-04T21:19:55.278Z,3.38
2023-05-04T21:24:04.850Z,4.10
2023-05-04T21:26:09.804Z,3.08
2023-05-04T21:28:14.694Z,2.65
2023-05-04T21:30:22.700Z,2.22
2023-05-04T21:32:27.711Z,2.60
2023-05-04T21:36:38.926Z,2.00
2023-05-04T21:38:45.754Z,2.40
2023-05-04T21:40:50.846Z,2.30
2023-05-04T21:45:00.948Z,3.20
2023-05-04T21:47:08.510Z,2.53
2023-05-04T21:49:13.537Z,2.80
2023-05-04T21:51:20.655Z,2.65
2023-05-04T21:53:26.015Z,2.60
2023-05-04T21:55:32.114Z,2.42
2023-05-04T21:57:37.577Z,2.30
2023-05-04T21:59:44.538Z,2.33
2023-05-04T22:01:49.439Z,2.40
2023-05-04T22:03:56.929Z,2.17
2023-05-04T22:06:02.067Z,2.70
2023-05-04T22:08:07.078Z,2.30
2023-05-04T22:10:12.696Z,2.53
2023-05-04T22:12:17.601Z,2.20
2023-05-04T22:14:22.725Z,2.30
2023-05-04T22:18:32.769Z,2.67
2023-05-04T22:20:41.548Z,2.47
2023-05-04T22:22:46.473Z,2.42
2023-05-04T22:24:51.370Z,2.65
2023-05-04T22:26:56.782Z,2.28
2023-05-04T22:29:01.885Z,2.67
2023-05-04T22:31:06.895Z,2.35
2023-05-04T22:33:11.805Z,2.17
2023-05-04T22:35:17.136Z,2.35
2023-05-04T22:37:24.619Z,2.15
2023-05-04T22:39:29.626Z,2.55
2023-05-04T22:41:34.577Z,2.50
2023-05-04T22:43:40.807Z,2.40
2023-05-04T22:45:45.966Z,2.47
2023-05-04T22:47:51.416Z,2.60
2023-05-04T22:49:57.673Z,2.85
2023-05-04T22:52:02.597Z,2.60
2023-05-04T22:54:10.208Z,3.35
2023-05-04T22:56:15.056Z,3.63
2023-05-04T22:58:20.084Z,2.72
2023-05-04T23:00:25.735Z,2.75
2023-05-04T23:02:30.691Z,2.40
2023-05-04T23:04:35.719Z,2.35
2023-05-04T23:06:41.449Z,2.72
2023-05-04T23:08:46.402Z,2.38
2023-05-04T23:12:58.724Z,3.00
2023-05-04T23:15:03.841Z,2.67
2023-05-04T23:17:09.566Z,2.97
2023-05-04T23:19:14.879Z,2.70
2023-05-04T23:21:19.787Z,2.42
2023-05-04T23:23:24.840Z,2.92
2023-05-04T23:25:29.703Z,3.03
2023-05-04T23:27:37.256Z,2.97
2023-05-04T23:29:42.539Z,2.78
2023-05-04T23:31:47.852Z,2.78
2023-05-04T23:33:52.916Z,3.20
2023-05-04T23:35:58.483Z,2.95
2023-05-04T23:38:04.149Z,3.40
2023-05-04T23:40:11.143Z,3.13
2023-05-04T23:42:16.141Z,3.22
2023-05-04T23:44:24.029Z,3.17
2023-05-04T23:46:29.085Z,3.25
2023-05-04T23:50:39.708Z,3.37
2023-05-04T23:52:44.877Z,2.95
2023-05-04T23:56:54.469Z,3.40
2023-05-04T23:58:59.324Z,2.85
